Time;durP1;ratioP1;P1;durP2;ratioP2;P2;SDS_P1;SDS_P2;PMS_P1;PMS_P2;Temp;Humidity;BMP_temperature;BMP_pressure;BME280_temperature;BME280_humidity;BME280_pressure;Samples;Min_cycle;Max_cycle;Signal;HPM_P1;HPM_P2
2024/01/09 00:01:22;;;;;;;5.03;2.33;;;-2.30;1.00;;;;;;5040622;28;20455;-64
2024/01/09 00:03:48;;;;;;;5.72;2.38;;;-2.30;1.00;;;;;;5056957;28;20123;-64
2024/01/09 00:06:15;;;;;;;4.80;2.35;;;-2.30;1.00;;;;;;5040444;28;20412;-63
2024/01/09 00:08:40;;;;;;;4.97;2.08;;;-2.20;1.00;;;;;;5040159;28;20107;-64
2024/01/09 00:11:06;;;;;;;4.43;2.78;;;-2.20;1.00;;;;;;5056823;28;20323;-64
2024/01/09 00:13:32;;;;;;;5.30;2.30;;;-2.30;99.90;;;;;;5056884;28;20475;-64
2024/01/09 00:39:13;;;;;;;4.40;2.20;;;-2.40;1.00;;;;;;5034261;28;20084;-64
2024/01/09 00:41:39;;;;;;;4.13;2.15;;;-2.40;99.90;;;;;;5056012;28;20408;-63
2024/01/09 00:44:05;;;;;;;5.03;2.42;;;-2.50;99.90;;;;;;5056260;28;20044;-63
2024/01/09 00:46:31;;;;;;;6.35;2.45;;;-2.40;1.00;;;;;;5056288;28;20048;-64
2024/01/09 00:48:56;;;;;;;3.50;1.77;;;-2.50;99.90;;;;;;5056823;28;20300;-64
2024/01/09 00:51:22;;;;;;;4.82;2.03;;;-2.50;1.00;;;;;;5039753;28;20135;-64
2024/01/09 00:53:48;;;;;;;3.75;2.28;;;-2.40;99.90;;;;;;5056891;28;20029;-64
2024/01/09 00:56:14;;;;;;;6.55;2.50;;;-2.50;99.90;;;;;;5039530;28;20037;-64
2024/01/09 00:58:39;;;;;;;3.38;2.13;;;-2.50;99.90;;;;;;5056044;28;20300;-64
2024/01/09 01:01:05;;;;;;;3.58;2.10;;;-2.50;1.00;;;;;;5039710;28;20206;-63
2024/01/09 01:03:31;;;;;;;3.60;1.92;;;-2.60;1.00;;;;;;5056180;28;20468;-63
2024/01/09 01:05:57;;;;;;;4.05;2.17;;;-2.60;1.00;;;;;;5056997;28;20066;-63
2024/01/09 01:08:23;;;;;;;4.82;2.30;;;-2.60;1.00;;;;;;5039446;28;20041;-63
2024/01/09 01:10:48;;;;;;;3.63;2.05;;;-2.60;1.00;;;;;;5056006;28;20396;-63
2024/01/09 01:13:14;;;;;;;4.38;2.03;;;-2.60;99.90;;;;;;5056030;28;20025;-62
2024/01/09 01:15:40;;;;;;;4.35;2.13;;;-2.60;1.00;;;;;;5056805;28;20112;-62
2024/01/09 01:18:06;;;;;;;4.18;2.20;;;-2.60;1.00;;;;;;5056678;28;20037;-63
2024/01/09 01:20:31;;;;;;;3.63;1.75;;;-2.60;99.90;;;;;;5055963;28;20025;-63
2024/01/09 01:22:57;;;;;;;3.75;1.73;;;-2.60;1.00;;;;;;5056586;28;20372;-63
2024/01/09 01:25:23;;;;;;;4.10;1.73;;;-2.70;1.00;;;;;;5055802;28;20055;-62
2024/01/09 01:27:49;;;;;;;3.45;2.22;;;-2.70;99.90;;;;;;5056970;28;20304;-65
2024/01/09 01:30:15;;;;;;;5.28;2.22;;;-2.70;1.00;;;;;;5055652;28;20037;-63
2024/01/09 01:32:41;;;;;;;5.38;2.10;;;-2.60;99.90;;;;;;5039186;28;20036;-64
2024/01/09 01:35:06;;;;;;;4.45;2.35;;;-2.50;1.00;;;;;;5056509;28;20027;-63
2024/01/09 01:37:32;;;;;;;3.80;1.92;;;-2.60;1.00;;;;;;5055642;28;20132;-62
2024/01/09 01:39:58;;;;;;;3.10;2.00;;;-2.70;99.90;;;;;;5055795;28;20053;-63
2024/01/09 01:42:24;;;;;;;4.03;2.28;;;-2.70;1.00;;;;;;5055626;28;20045;-63
2024/01/09 01:44:53;;;;;;;3.97;2.30;;;-2.70;1.00;;;;;;5056651;28;20139;-63
2024/01/09 01:47:19;;;;;;;3.63;1.90;;;-2.70;99.90;;;;;;5060382;28;20025;-63
2024/01/09 01:49:45;;;;;;;4.65;2.50;;;-2.70;99.90;;;;;;5042964;28;20418;-64
2024/01/09 01:52:12;;;;;;;5.80;2.60;;;-2.70;99.90;;;;;;5042872;28;20036;-64
2024/01/09 01:54:39;;;;;;;4.35;2.47;;;-2.70;20.90;;;;;;5060143;28;20028;-63
2024/01/09 01:57:06;;;;;;;3.35;2.05;;;-2.70;1.00;;;;;;5060192;28;20120;-63
2024/01/09 01:59:37;;;;;;;4.03;2.30;;;-2.80;99.90;;;;;;5059517;28;20043;-63
2024/01/09 02:02:04;;;;;;;4.00;2.03;;;-2.80;1.00;;;;;;5059400;28;20048;-63
2024/01/09 02:04:31;;;;;;;3.88;2.40;;;-2.80;99.90;;;;;;5059165;28;20396;-63
2024/01/09 02:06:58;;;;;;;4.15;2.22;;;-2.80;99.90;;;;;;5059640;28;20093;-63
2024/01/09 02:09:24;;;;;;;4.93;1.95;;;-2.80;1.00;;;;;;5059165;28;20033;-64
2024/01/09 02:11:50;;;;;;;3.65;2.33;;;-2.90;1.00;;;;;;5059377;28;20029;-64
2024/01/09 02:14:16;;;;;;;4.05;2.42;;;-2.80;1.00;;;;;;5042507;28;20033;-63
2024/01/09 02:16:42;;;;;;;6.47;2.50;;;-2.80;1.00;;;;;;5042834;28;20036;-63
2024/01/09 02:19:07;;;;;;;4.65;2.15;;;-2.80;1.00;;;;;;5059720;28;20033;-63
2024/01/09 02:21:33;;;;;;;4.13;1.90;;;-2.90;1.00;;;;;;5059257;28;20025;-65
2024/01/09 02:23:59;;;;;;;4.38;2.47;;;-2.90;1.00;;;;;;5059630;28;20112;-63
2024/01/09 02:26:43;;;;;;;4.85;2.65;;;-3.00;1.00;;;;;;5059704;28;20028;-63
2024/01/09 02:29:13;;;;;;;4.38;2.53;;;-2.90;99.90;;;;;;5059544;28;20029;-63
2024/01/09 02:31:39;;;;;;;3.63;1.80;;;-2.90;99.90;;;;;;5058896;28;20033;-64
2024/01/09 02:34:07;;;;;;;3.50;1.83;;;-3.00;99.90;;;;;;5059553;28;20029;-64
2024/01/09 02:36:32;;;;;;;4.60;2.42;;;-3.00;99.90;;;;;;5059770;28;20021;-63
2024/01/09 02:38:58;;;;;;;4.32;2.40;;;-2.90;99.90;;;;;;5059410;28;20031;-62
2024/01/09 02:41:24;;;;;;;4.00;2.10;;;-2.80;99.90;;;;;;5041822;28;20089;-63
2024/01/09 02:43:50;;;;;;;3.88;2.30;;;-2.80;10.10;;;;;;5058722;28;20355;-63
2024/01/09 02:46:16;;;;;;;4.85;2.28;;;-2.90;25.30;;;;;;5058646;28;20041;-63
2024/01/09 02:48:41;;;;;;;3.10;2.10;;;-2.80;1.00;;;;;;5059391;28;20286;-64
2024/01/09 02:51:07;;;;;;;5.25;1.80;;;-2.90;99.90;;;;;;5059484;28;20032;-64
2024/01/09 02:53:33;;;;;;;4.32;2.13;;;-2.90;1.00;;;;;;5058548;28;20039;-65
2024/01/09 02:55:59;;;;;;;4.28;2.45;;;-3.00;1.00;;;;;;5058520;28;20096;-64
2024/01/09 02:58:24;;;;;;;5.18;2.45;;;-2.90;1.00;;;;;;5057903;28;20033;-64
2024/01/09 03:00:50;;;;;;;3.70;2.00;;;-3.00;99.90;;;;;;5041707;28;20052;-64
2024/01/09 03:03:16;;;;;;;4.28;2.33;;;-2.90;1.00;;;;;;5058866;28;20308;-64
2024/01/09 03:05:42;;;;;;;6.13;2.50;;;-2.90;99.90;;;;;;5059070;28;20036;-65
2024/01/09 03:08:08;;;;;;;5.78;2.58;;;-3.00;99.90;;;;;;5025460;28;20144;-64
2024/01/09 03:10:34;;;;;;;4.63;2.28;;;-2.90;1.00;;;;;;5058194;28;20534;-65
2024/01/09 03:13:00;;;;;;;3.70;2.10;;;-3.00;1.00;;;;;;5057967;28;20037;-64
2024/01/09 03:15:25;;;;;;;3.65;2.20;;;-3.00;1.00;;;;;;5058040;28;20051;-64
2024/01/09 03:17:51;;;;;;;3.78;2.20;;;-3.10;1.00;;;;;;5058701;28;20309;-64
2024/01/09 03:20:17;;;;;;;4.68;2.15;;;-3.20;1.00;;;;;;5041294;28;20033;-64
2024/01/09 03:22:43;;;;;;;3.22;2.10;;;-3.20;1.00;;;;;;5057907;28;20055;-64
2024/01/09 03:25:09;;;;;;;3.33;2.10;;;-3.10;92.60;;;;;;5058883;28;20039;-64
2024/01/09 03:27:35;;;;;;;5.05;2.38;;;-3.00;1.00;;;;;;5057571;28;20065;-64
2024/01/09 03:30:00;;;;;;;4.40;2.42;;;-3.00;1.00;;;;;;5058579;28;20028;-65
2024/01/09 03:32:26;;;;;;;3.47;2.28;;;-3.00;99.90;;;;;;5058468;28;20472;-64
2024/01/09 03:34:55;;;;;;;3.20;1.92;;;-3.00;1.00;;;;;;5057646;28;20343;-65
2024/01/09 03:37:21;;;;;;;3.85;2.13;;;-3.00;10.10;;;;;;5057603;28;20028;-64
2024/01/09 03:39:47;;;;;;;4.90;2.22;;;-3.10;99.90;;;;;;5058166;28;20080;-64
2024/01/09 03:42:13;;;;;;;3.60;1.95;;;-3.10;1.00;;;;;;5058263;28;20082;-64
2024/01/09 03:44:39;;;;;;;3.17;2.10;;;-3.10;1.00;;;;;;5058263;28;20029;-65
2024/01/09 03:47:04;;;;;;;3.55;1.75;;;-3.10;99.90;;;;;;5058094;28;20094;-64
2024/01/09 03:49:30;;;;;;;4.45;2.13;;;-3.10;1.00;;;;;;5057283;28;20071;-64
2024/01/09 03:51:58;;;;;;;3.33;2.00;;;-3.10;1.00;;;;;;5057208;28;20033;-64
2024/01/09 03:54:23;;;;;;;3.00;1.95;;;-3.10;1.00;;;;;;5057863;28;20029;-64
2024/01/09 03:56:49;;;;;;;4.88;1.98;;;-3.20;99.90;;;;;;5057795;28;20036;-64
2024/01/09 03:59:15;;;;;;;5.07;2.28;;;-3.10;1.00;;;;;;5057019;28;20052;-64
2024/01/09 04:01:41;;;;;;;7.55;2.13;;;-3.10;99.90;;;;;;5057035;28;20048;-64
2024/01/09 04:04:06;;;;;;;4.32;2.03;;;-3.20;99.90;;;;;;5057012;28;20052;-65
2024/01/09 04:06:34;;;;;;;5.43;2.40;;;-3.30;1.00;;;;;;5023898;28;20064;-65
2024/01/09 04:09:00;;;;;;;3.95;1.60;;;-3.30;99.90;;;;;;5056429;28;20043;-64
2024/01/09 04:11:25;;;;;;;4.88;2.35;;;-3.30;78.70;;;;;;5040382;28;20033;-67
2024/01/09 04:13:51;;;;;;;4.03;2.10;;;-3.30;99.90;;;;;;5056834;28;20028;-65
2024/01/09 04:16:18;;;;;;;5.22;2.53;;;-3.20;1.00;;;;;;5056758;28;20069;-64
2024/01/09 04:18:44;;;;;;;4.97;2.00;;;-3.10;99.90;;;;;;5057485;28;20036;-65
2024/01/09 04:21:10;;;;;;;3.90;1.92;;;-3.20;99.90;;;;;;5057378;28;20055;-65
2024/01/09 04:23:38;;;;;;;4.28;2.22;;;-3.20;99.90;;;;;;5057465;28;20416;-64
2024/01/09 04:26:04;;;;;;;4.25;2.00;;;-3.30;1.00;;;;;;5024082;28;20029;-65
2024/01/09 04:28:30;;;;;;;6.07;2.20;;;-3.30;1.00;;;;;;5057369;28;20044;-65
2024/01/09 04:30:56;;;;;;;4.97;2.38;;;-3.40;99.90;;;;;;5056626;28;20064;-65
2024/01/09 04:33:22;;;;;;;3.97;1.90;;;-3.30;1.00;;;;;;5057286;28;20392;-65
2024/01/09 04:35:48;;;;;;;4.30;2.17;;;-3.30;1.00;;;;;;5057218;28;20086;-65
2024/01/09 04:38:13;;;;;;;2.78;2.00;;;-3.30;1.00;;;;;;5057245;28;20025;-65
2024/01/09 04:40:39;;;;;;;3.47;2.00;;;-3.20;1.00;;;;;;5056231;28;20053;-65
2024/01/09 04:43:05;;;;;;;3.90;1.88;;;-3.20;1.00;;;;;;5056622;28;20047;-65
2024/01/09 04:45:31;;;;;;;4.00;2.17;;;-3.20;99.90;;;;;;5039939;28;20029;-66
2024/01/09 04:47:57;;;;;;;3.42;1.80;;;-3.30;1.00;;;;;;5039964;28;20029;-65
2024/01/09 04:50:22;;;;;;;2.97;2.00;;;-3.40;99.90;;;;;;5057152;28;20408;-66
2024/01/09 04:52:48;;;;;;;5.78;2.03;;;-3.30;1.00;;;;;;5056353;28;20037;-65
2024/01/09 04:55:14;;;;;;;5.05;2.55;;;-3.20;99.90;;;;;;5057315;28;20305;-66
2024/01/09 04:57:40;;;;;;;3.40;2.08;;;-3.20;1.00;;;;;;5057071;28;20048;-65
2024/01/09 05:00:06;;;;;;;5.05;2.05;;;-3.30;1.00;;;;;;5056227;28;20029;-64
2024/01/09 05:02:32;;;;;;;3.05;1.77;;;-3.30;1.00;;;;;;5056273;28;20320;-64
2024/01/09 05:04:57;;;;;;;3.80;2.13;;;-3.40;99.90;;;;;;5056145;28;20087;-65
2024/01/09 05:07:23;;;;;;;4.32;2.13;;;-3.30;99.90;;;;;;5056767;28;20029;-65
2024/01/09 05:09:49;;;;;;;4.28;2.33;;;-3.20;1.00;;;;;;5023061;28;20037;-65
2024/01/09 05:12:15;;;;;;;3.53;1.85;;;-3.30;99.90;;;;;;5056078;28;20483;-65
2024/01/09 05:14:41;;;;;;;3.33;1.92;;;-3.50;99.90;;;;;;5056930;28;20025;-65
2024/01/09 05:17:06;;;;;;;3.90;2.03;;;-3.40;99.90;;;;;;5056004;28;20044;-65
2024/01/09 05:19:32;;;;;;;3.58;2.03;;;-3.50;99.90;;;;;;5056911;28;20037;-65
2024/01/09 05:22:00;;;;;;;4.13;2.10;;;-3.50;99.90;;;;;;5060248;28;20037;-65
2024/01/09 05:24:26;;;;;;;6.82;2.25;;;-3.60;99.90;;;;;;5043306;28;20048;-65
2024/01/09 05:26:52;;;;;;;5.53;2.28;;;-3.60;99.90;;;;;;5060799;28;20029;-65
2024/01/09 05:29:18;;;;;;;3.58;2.13;;;-3.60;1.00;;;;;;5060560;28;20041;-64
2024/01/09 05:31:44;;;;;;;4.13;2.38;;;-3.60;1.00;;;;;;5059953;28;20057;-65
2024/01/09 05:34:10;;;;;;;3.83;2.28;;;-3.60;99.90;;;;;;5059769;28;20017;-66
2024/01/09 05:36:36;;;;;;;4.15;1.83;;;-3.70;1.00;;;;;;5060496;28;20323;-65
2024/01/09 05:39:02;;;;;;;3.80;2.10;;;-3.70;1.00;;;;;;5043207;28;20090;-64
2024/01/09 05:41:27;;;;;;;3.45;1.70;;;-3.60;99.90;;;;;;5060261;28;20140;-65
2024/01/09 05:43:53;;;;;;;3.25;1.98;;;-3.50;1.00;;;;;;5060420;28;20056;-65
2024/01/09 05:46:19;;;;;;;3.28;2.03;;;-3.70;99.90;;;;;;5059449;28;20041;-65
2024/01/09 05:48:45;;;;;;;7.35;2.28;;;-3.70;1.00;;;;;;5059626;28;20304;-65
2024/01/09 05:51:11;;;;;;;3.88;2.10;;;-3.70;1.00;;;;;;5060177;28;20075;-65
2024/01/09 05:53:37;;;;;;;5.95;2.53;;;-3.60;1.00;;;;;;5060385;28;20037;-65
2024/01/09 05:56:04;;;;;;;4.95;2.35;;;-3.70;99.90;;;;;;5060283;28;20044;-66
2024/01/09 05:58:30;;;;;;;3.47;2.08;;;-3.60;99.90;;;;;;5059618;28;20048;-64
2024/01/09 06:00:56;;;;;;;3.60;2.05;;;-3.60;1.00;;;;;;5059389;28;20094;-65
2024/01/09 06:03:21;;;;;;;4.95;2.20;;;-3.70;1.00;;;;;;5043051;28;20032;-65
2024/01/09 06:05:47;;;;;;;4.15;1.98;;;-3.70;99.90;;;;;;5059324;28;20052;-64
2024/01/09 06:08:13;;;;;;;4.72;2.25;;;-3.80;1.00;;;;;;5059205;28;20029;-64
2024/01/09 06:10:39;;;;;;;3.70;2.15;;;-3.80;1.00;;;;;;5059096;28;20025;-64
2024/01/09 06:13:05;;;;;;;4.50;2.53;;;-3.70;34.90;;;;;;5059852;28;20025;-64
2024/01/09 06:15:30;;;;;;;3.85;2.10;;;-3.80;99.90;;;;;;5059057;28;20040;-65
2024/01/09 06:17:56;;;;;;;5.40;2.58;;;-3.80;99.90;;;;;;5042300;28;20061;-64
2024/01/09 06:20:22;;;;;;;4.53;2.17;;;-3.80;99.90;;;;;;5059674;28;20033;-64
2024/01/09 06:22:48;;;;;;;4.50;2.40;;;-3.90;1.00;;;;;;5042709;28;20391;-64
2024/01/09 06:25:14;;;;;;;4.15;2.45;;;-3.80;1.00;;;;;;5025754;28;20025;-64
2024/01/09 06:27:40;;;;;;;4.75;2.53;;;-3.80;99.90;;;;;;5058796;28;20029;-65
2024/01/09 06:30:06;;;;;;;4.05;2.10;;;-3.70;1.00;;;;;;5058862;28;20129;-65
2024/01/09 06:32:32;;;;;;;4.13;2.65;;;-3.80;99.90;;;;;;5058461;28;20048;-65
2024/01/09 06:34:58;;;;;;;4.13;2.42;;;-3.80;1.00;;;;;;5058641;28;20069;-65
2024/01/09 06:37:24;;;;;;;4.57;2.00;;;-3.70;1.00;;;;;;5042141;28;20061;-66
2024/01/09 06:39:53;;;;;;;4.43;2.17;;;-3.80;1.00;;;;;;5058552;28;20063;-65
2024/01/09 06:42:19;;;;;;;4.18;2.45;;;-3.70;78.40;;;;;;5058739;28;20029;-65
2024/01/09 06:44:44;;;;;;;3.28;2.20;;;-3.70;1.00;;;;;;5058612;28;20097;-66
2024/01/09 06:47:10;;;;;;;5.95;2.53;;;-3.70;99.90;;;;;;5059254;28;20060;-65
2024/01/09 06:49:36;;;;;;;5.32;2.75;;;-3.60;99.90;;;;;;5058261;28;20086;-65
2024/01/09 06:52:02;;;;;;;3.10;2.10;;;-3.70;1.00;;;;;;5058595;28;20021;-65
2024/01/09 06:54:28;;;;;;;4.75;2.58;;;-3.70;99.90;;;;;;5059066;28;20029;-66
2024/01/09 06:56:53;;;;;;;4.20;2.47;;;-3.70;1.00;;;;;;5058285;28;20108;-65
2024/01/09 06:59:19;;;;;;;4.50;2.28;;;-3.70;99.90;;;;;;5058869;28;20033;-65
2024/01/09 07:01:46;;;;;;;4.32;2.15;;;-3.60;1.00;;;;;;5058221;28;20439;-65
2024/01/09 07:04:12;;;;;;;4.25;2.17;;;-3.70;99.90;;;;;;5041770;28;20047;-65
2024/01/09 07:06:38;;;;;;;4.47;2.58;;;-2.50;1.00;;;;;;5058848;28;20033;-65
2024/01/09 07:09:04;;;;;;;3.72;2.20;;;-3.00;1.00;;;;;;5041546;28;20055;-65
2024/01/09 07:11:29;;;;;;;5.45;2.83;;;-3.40;1.00;;;;;;5058793;28;20398;-66
2024/01/09 07:13:55;;;;;;;4.20;2.30;;;-3.60;1.00;;;;;;5057916;28;20029;-65
2024/01/09 07:16:21;;;;;;;3.90;2.20;;;-3.60;1.00;;;;;;5058088;28;20057;-64
2024/01/09 07:18:47;;;;;;;4.85;2.80;;;-3.70;99.90;;;;;;5058732;28;20037;-63
2024/01/09 07:21:12;;;;;;;4.90;2.42;;;-3.80;99.90;;;;;;5057860;28;20278;-65
2024/01/09 07:23:38;;;;;;;4.13;2.40;;;-3.80;1.00;;;;;;5057908;28;20351;-65
2024/01/09 07:26:04;;;;;;;3.80;2.17;;;-3.80;1.00;;;;;;5058535;28;20033;-66
2024/01/09 07:28:30;;;;;;;4.38;2.65;;;-3.80;1.00;;;;;;5058395;28;20116;-66
2024/01/09 07:30:56;;;;;;;4.57;2.30;;;-3.80;1.00;;;;;;5057714;28;20037;-65
2024/01/09 07:33:22;;;;;;;5.28;2.53;;;-3.60;1.00;;;;;;5058392;28;20107;-65
2024/01/09 07:35:48;;;;;;;6.28;2.63;;;-3.60;1.00;;;;;;5058226;28;20324;-65
2024/01/09 07:38:14;;;;;;;4.85;2.80;;;-3.60;99.90;;;;;;5058360;28;20166;-65
2024/01/09 07:40:39;;;;;;;4.63;2.67;;;-3.60;1.00;;;;;;5058130;28;20052;-65
2024/01/09 07:43:05;;;;;;;4.75;2.40;;;-3.70;99.90;;;;;;5039788;28;20090;-65
2024/01/09 07:45:31;;;;;;;4.50;2.63;;;-3.80;1.00;;;;;;5024143;28;20094;-64
2024/01/09 07:47:59;;;;;;;6.53;2.70;;;-3.90;97.00;;;;;;5057247;28;20174;-67
2024/01/09 07:50:25;;;;;;;5.78;2.83;;;-3.90;7.80;;;;;;5057437;28;20156;-65
2024/01/09 07:52:51;;;;;;;4.45;2.70;;;-3.90;1.00;;;;;;5057009;28;20117;-65
2024/01/09 07:55:16;;;;;;;4.97;2.85;;;-3.90;99.90;;;;;;5057134;28;20029;-65
2024/01/09 07:57:42;;;;;;;4.50;2.67;;;-3.80;1.00;;;;;;5040386;28;20116;-65
2024/01/09 08:00:09;;;;;;;4.55;2.67;;;-3.80;99.90;;;;;;5040508;28;20034;-64
2024/01/09 08:02:38;;;;;;;4.18;2.17;;;-3.80;1.00;;;;;;5057808;28;20040;-65
2024/01/09 08:05:04;;;;;;;4.85;2.70;;;-3.80;1.00;;;;;;5040372;28;20324;-65
2024/01/09 08:07:30;;;;;;;4.43;2.42;;;-3.90;14.70;;;;;;5040564;28;20037;-65
2024/01/09 08:09:56;;;;;;;4.38;2.50;;;-4.00;99.90;;;;;;5057597;28;20033;-64
2024/01/09 08:12:22;;;;;;;5.05;2.65;;;-4.00;99.90;;;;;;5023893;28;20087;-65
2024/01/09 08:14:49;;;;;;;5.47;2.75;;;-4.00;99.90;;;;;;5057733;28;20411;-65
2024/01/09 08:17:15;;;;;;;4.25;2.50;;;-3.90;99.90;;;;;;5056763;28;20041;-64
2024/01/09 08:19:40;;;;;;;5.00;2.25;;;-4.00;99.90;;;;;;5057602;28;20428;-65
2024/01/09 08:22:06;;;;;;;4.15;2.60;;;-3.90;1.00;;;;;;5056953;28;20064;-64
2024/01/09 08:24:32;;;;;;;4.45;2.58;;;-3.90;12.50;;;;;;5056652;28;20059;-64
2024/01/09 08:26:58;;;;;;;4.72;2.58;;;-3.90;99.90;;;;;;5056613;28;20028;-64
2024/01/09 08:29:27;;;;;;;5.93;2.67;;;-3.80;1.00;;;;;;5057043;28;20044;-64
2024/01/09 08:31:53;;;;;;;4.13;2.47;;;-3.70;1.00;;;;;;5057195;28;20037;-64
2024/01/09 08:34:19;;;;;;;5.45;2.92;;;-3.70;1.00;;;;;;5057123;28;20040;-64
2024/01/09 08:36:45;;;;;;;3.65;2.50;;;-3.60;1.00;;;;;;5039907;28;20028;-64
2024/01/09 08:39:14;;;;;;;3.85;2.42;;;-3.70;99.90;;;;;;5056476;28;20118;-64
2024/01/09 08:41:40;;;;;;;2.90;1.90;;;-3.60;1.00;;;;;;5056388;28;20045;-64
2024/01/09 08:44:07;;;;;;;5.60;2.83;;;-3.60;99.90;;;;;;5039866;28;20107;-64
2024/01/09 08:46:33;;;;;;;6.85;2.78;;;-3.60;1.00;;;;;;5056280;28;20048;-64
2024/01/09 08:48:59;;;;;;;5.75;2.65;;;-3.60;1.00;;;;;;5056276;28;20029;-64
2024/01/09 08:51:27;;;;;;;5.13;2.63;;;-3.60;1.00;;;;;;5056274;28;20033;-64
2024/01/09 08:53:56;;;;;;;5.22;2.95;;;-3.50;1.00;;;;;;5040005;28;20352;-64
2024/01/09 08:56:22;;;;;;;5.57;2.88;;;-3.60;16.40;;;;;;5056837;28;20032;-64
2024/01/09 08:58:48;;;;;;;5.45;2.92;;;-3.50;73.10;;;;;;5056109;28;20040;-64
2024/01/09 09:01:19;;;;;;;7.10;2.80;;;-3.40;1.00;;;;;;5056715;28;20098;-64
2024/01/09 09:03:45;;;;;;;5.40;2.72;;;-3.40;99.90;;;;;;5056008;28;20028;-64
2024/01/09 09:06:12;;;;;;;3.88;2.50;;;-3.40;99.90;;;;;;5023187;28;20111;-64
2024/01/09 09:08:39;;;;;;;5.20;2.80;;;-3.40;92.00;;;;;;5056681;28;20032;-64
2024/01/09 09:11:07;;;;;;;5.13;2.33;;;-3.40;1.00;;;;;;5055987;28;20037;-65
2024/01/09 09:13:33;;;;;;;5.80;2.33;;;-3.30;1.00;;;;;;5039282;28;20132;-65
2024/01/09 09:16:00;;;;;;;5.45;3.03;;;-3.40;1.00;;;;;;5056764;28;20116;-64
2024/01/09 09:18:27;;;;;;;7.18;3.15;;;-3.30;1.00;;;;;;5055988;28;20065;-64
2024/01/09 09:20:53;;;;;;;4.57;2.80;;;-3.20;99.90;;;;;;5055798;28;20091;-64
2024/01/09 09:23:19;;;;;;;2.63;1.95;;;-3.30;99.90;;;;;;5039338;28;20090;-64
2024/01/09 09:25:45;;;;;;;5.00;2.80;;;-3.20;99.90;;;;;;5056551;28;20119;-65
2024/01/09 09:28:11;;;;;;;4.40;2.78;;;-3.10;1.00;;;;;;5056543;28;20301;-64
2024/01/09 09:30:37;;;;;;;5.70;2.58;;;-3.10;1.00;;;;;;5055714;28;20036;-65
2024/01/09 09:33:03;;;;;;;6.57;2.90;;;-3.00;1.00;;;;;;5055836;28;20037;-64
2024/01/09 09:35:29;;;;;;;4.25;2.85;;;-2.90;1.00;;;;;;5056389;28;20017;-64
2024/01/09 09:37:55;;;;;;;5.45;3.08;;;-2.90;7.60;;;;;;5056388;28;20037;-64
2024/01/09 09:40:22;;;;;;;6.30;2.65;;;-2.80;5.50;;;;;;5056201;28;20045;-64
2024/01/09 09:42:58;;;;;;;5.72;3.13;;;-2.80;1.00;;;;;;5055631;28;20039;-64
2024/01/09 09:45:25;;;;;;;4.18;2.65;;;-2.80;1.00;;;;;;5056434;28;20051;-65
2024/01/09 09:47:54;;;;;;;4.40;3.00;;;-2.60;99.90;;;;;;5055554;28;20021;-66
2024/01/09 09:50:21;;;;;;;4.75;3.13;;;-2.60;1.00;;;;;;5055473;28;20021;-66
2024/01/09 09:52:47;;;;;;;5.38;2.67;;;-2.50;88.40;;;;;;5038922;28;20138;-66
2024/01/09 09:55:13;;;;;;;5.15;2.75;;;-2.50;1.00;;;;;;5055721;28;20041;-66
2024/01/09 09:57:39;;;;;;;5.95;2.90;;;-2.30;1.00;;;;;;5056226;28;20033;-65
2024/01/09 10:00:09;;;;;;;4.13;2.67;;;-2.10;1.00;;;;;;5039098;28;20029;-65
2024/01/09 10:02:49;;;;;;;6.68;2.92;;;-1.80;1.00;;;;;;5039415;28;20029;-66
2024/01/09 10:05:19;;;;;;;3.33;2.55;;;-1.60;99.90;;;;;;5056131;28;20028;-66
2024/01/09 10:07:47;;;;;;;4.63;2.63;;;-1.30;1.00;;;;;;5059113;28;20037;-65
2024/01/09 10:10:14;;;;;;;4.43;2.53;;;-1.10;1.00;;;;;;5059881;28;20032;-64
2024/01/09 10:12:40;;;;;;;5.75;3.10;;;-1.00;97.20;;;;;;5059197;28;20122;-65
2024/01/09 10:15:13;;;;;;;6.68;3.10;;;-0.90;95.10;;;;;;5059348;28;20110;-64
2024/01/09 10:17:40;;;;;;;4.97;2.80;;;-0.70;1.00;;;;;;5059090;28;20040;-64
2024/01/09 10:20:08;;;;;;;4.78;3.25;;;-0.70;1.00;;;;;;5059888;28;20367;-65
2024/01/09 10:22:35;;;;;;;4.18;2.67;;;-0.40;1.00;;;;;;5059698;28;20029;-65
2024/01/09 10:25:07;;;;;;;6.35;3.00;;;0.10;1.00;;;;;;5059862;28;20304;-64
2024/01/09 10:27:37;;;;;;;5.10;2.67;;;0.20;99.90;;;;;;5042222;28;20040;-65
2024/01/09 10:30:05;;;;;;;4.55;2.50;;;0.10;99.90;;;;;;5059462;28;20366;-66
2024/01/09 10:32:35;;;;;;;4.38;2.85;;;0.40;99.90;;;;;;5059478;28;20032;-65
2024/01/09 10:35:03;;;;;;;4.75;2.85;;;0.40;1.00;;;;;;5058719;28;20398;-70
2024/01/09 10:37:34;;;;;;;7.50;2.78;;;0.60;1.00;;;;;;5042276;28;20017;-68
2024/01/09 10:40:00;;;;;;;5.93;3.15;;;0.90;1.00;;;;;;5041851;28;20057;-68
2024/01/09 10:42:27;;;;;;;3.63;2.70;;;0.60;1.00;;;;;;5058587;28;20044;-69
2024/01/09 10:44:57;;;;;;;4.25;2.63;;;0.50;1.00;;;;;;5059313;28;20025;-68
2024/01/09 10:47:24;;;;;;;4.28;2.85;;;0.90;1.00;;;;;;5041895;28;20025;-70
2024/01/09 10:49:51;;;;;;;6.68;2.95;;;1.10;1.00;;;;;;5058653;28;20054;-70
2024/01/09 10:52:17;;;;;;;5.20;2.65;;;1.10;1.00;;;;;;5059086;28;20033;-69
2024/01/09 10:54:47;;;;;;;6.10;3.30;;;1.50;1.00;;;;;;5059147;28;20033;-69
2024/01/09 10:57:14;;;;;;;8.13;3.17;;;2.00;1.00;;;;;;5058569;28;20033;-70
2024/01/09 10:59:41;;;;;;;5.70;3.22;;;1.90;1.00;;;;;;5041896;28;20021;-69
2024/01/09 11:02:25;;;;;;;6.20;3.47;;;2.30;1.00;;;;;;5058319;28;20190;-69
2024/01/09 11:04:51;;;;;;;7.55;3.50;;;2.40;99.90;;;;;;5059012;28;20033;-70
2024/01/09 11:07:17;;;;;;;4.53;3.15;;;2.20;99.90;;;;;;5059189;28;20178;-68
2024/01/09 11:09:45;;;;;;;5.45;3.35;;;2.80;99.90;;;;;;5058111;28;20033;-69
2024/01/09 11:12:34;;;;;;;5.82;3.20;;;3.00;99.90;;;;;;5058198;28;20021;-68
2024/01/09 11:15:05;;;;;;;7.18;3.20;;;3.30;99.90;;;;;;5058828;28;20025;-69
2024/01/09 11:17:33;;;;;;;5.93;3.60;;;3.30;99.90;;;;;;5056949;28;20037;-71
2024/01/09 11:19:58;;;;;;;5.65;3.22;;;3.30;99.90;;;;;;5058892;28;20025;-70
2024/01/09 11:22:24;;;;;;;6.45;3.60;;;3.50;99.90;;;;;;5058641;28;20033;-70
2024/01/09 11:24:56;;;;;;;6.60;3.60;;;3.00;99.90;;;;;;5058493;28;20038;-70
2024/01/09 11:27:22;;;;;;;6.72;3.88;;;2.60;99.90;;;;;;5057606;28;20127;-71
2024/01/09 11:29:53;;;;;;;8.57;4.30;;;2.30;99.90;;;;;;5040828;28;20088;-70
2024/01/09 11:32:24;;;;;;;4.55;3.28;;;2.30;99.90;;;;;;5058767;28;20304;-70
2024/01/09 11:35:27;;;;;;;;;;;2.00;99.90;;;;;;5059277;28;20029;-71
2024/01/09 11:37:55;;;;;;;5.40;3.40;;;1.90;99.90;;;;;;5056534;28;19919;-72
2024/01/09 11:40:22;;;;;;;5.32;3.40;;;1.60;99.90;;;;;;5053299;28;20131;-71
2024/01/09 11:42:52;;;;;;;4.80;3.20;;;1.70;99.90;;;;;;5058062;28;20029;-71
2024/01/09 11:45:21;;;;;;;3.63;2.78;;;1.60;99.90;;;;;;5057935;28;20049;-71
2024/01/09 11:47:47;;;;;;;6.50;3.22;;;1.50;99.90;;;;;;5057078;28;20033;-72
2024/01/09 11:50:13;;;;;;;8.05;3.22;;;1.20;99.90;;;;;;5057782;28;20378;-72
2024/01/09 11:52:41;;;;;;;6.65;3.20;;;1.10;99.90;;;;;;5057759;28;20025;-72
2024/01/09 11:55:09;;;;;;;5.32;3.33;;;1.10;99.90;;;;;;5040710;28;20043;-72
2024/01/09 11:57:36;;;;;;;6.80;3.40;;;1.10;99.90;;;;;;5057501;28;20036;-72
2024/01/09 12:00:04;;;;;;;4.32;3.35;;;0.90;99.90;;;;;;5040225;28;20048;-72
2024/01/09 12:02:33;;;;;;;5.22;3.20;;;0.90;99.90;;;;;;5057708;28;20029;-72
2024/01/09 12:05:00;;;;;;;6.85;3.75;;;0.90;99.90;;;;;;5057038;28;20381;-72
2024/01/09 12:07:27;;;;;;;5.70;2.90;;;0.80;99.90;;;;;;5056990;28;20029;-73
2024/01/09 12:09:53;;;;;;;5.32;3.40;;;0.80;99.90;;;;;;5040616;28;20278;-72
2024/01/09 12:12:23;;;;;;;5.95;3.30;;;1.00;99.90;;;;;;5057605;28;20159;-72
2024/01/09 12:14:56;;;;;;;4.50;2.75;;;1.20;99.90;;;;;;5056828;28;20021;-72
2024/01/09 12:17:37;;;;;;;5.75;2.90;;;1.20;99.90;;;;;;5056687;28;20396;-72
2024/01/09 12:20:05;;;;;;;5.80;3.55;;;1.30;99.90;;;;;;5056762;28;20044;-72
2024/01/09 12:22:33;;;;;;;6.85;3.28;;;1.30;99.90;;;;;;5056581;28;20037;-71
2024/01/09 12:25:00;;;;;;;6.43;3.35;;;1.00;99.90;;;;;;5057311;28;20033;-71
2024/01/09 12:27:26;;;;;;;8.30;3.40;;;1.10;99.90;;;;;;5056360;28;20029;-74
2024/01/09 12:29:52;;;;;;;5.85;2.72;;;1.20;99.90;;;;;;5056173;28;20400;-71
2024/01/09 12:32:20;;;;;;;5.68;3.30;;;1.20;99.90;;;;;;5057105;28;20120;-71
2024/01/09 12:34:46;;;;;;;5.60;3.40;;;1.10;99.90;;;;;;5056369;28;20110;-71
2024/01/09 12:37:12;;;;;;;6.47;3.22;;;0.90;99.90;;;;;;5057083;28;20021;-70
2024/01/09 12:39:39;;;;;;;5.25;3.20;;;0.90;99.90;;;;;;5056204;28;20424;-73
2024/01/09 12:42:10;;;;;;;4.90;3.25;;;0.80;99.90;;;;;;5056513;28;20334;-72
2024/01/09 12:44:38;;;;;;;7.05;3.22;;;0.90;99.90;;;;;;5057173;28;20319;-72
2024/01/09 12:47:09;;;;;;;5.80;3.35;;;1.00;99.90;;;;;;5056917;28;20032;-72
2024/01/09 12:49:45;;;;;;;5.53;3.40;;;1.00;99.90;;;;;;5056184;28;20128;-71
2024/01/09 12:52:12;;;;;;;4.72;2.80;;;0.90;99.90;;;;;;5056152;28;20025;-71
2024/01/09 12:54:40;;;;;;;4.82;3.28;;;0.80;99.90;;;;;;5057022;28;20029;-71
2024/01/09 12:57:06;;;;;;;5.72;3.28;;;0.80;99.90;;;;;;5056278;28;20057;-71
2024/01/09 12:59:32;;;;;;;6.82;3.13;;;0.70;99.90;;;;;;5057057;28;20351;-70
2024/01/09 13:01:59;;;;;;;4.35;2.90;;;0.90;99.90;;;;;;5056179;28;20309;-71
2024/01/09 13:04:25;;;;;;;5.47;3.30;;;0.70;99.90;;;;;;5039583;28;20086;-71
2024/01/09 13:06:51;;;;;;;5.78;3.42;;;0.50;99.90;;;;;;5056314;28;20389;-71
2024/01/09 13:09:17;;;;;;;5.25;3.05;;;0.40;99.90;;;;;;5055934;28;20048;-71
2024/01/09 13:11:44;;;;;;;4.65;2.63;;;0.50;99.90;;;;;;5039399;28;20044;-72
2024/01/09 13:14:11;;;;;;;4.95;3.03;;;0.60;99.90;;;;;;5039464;28;20035;-72
2024/01/09 13:16:37;;;;;;;5.78;3.15;;;0.60;99.90;;;;;;5056681;28;20452;-73